Terminal Aerodrome Forecast
Issued by NWS

Home | Current Version | Previous Version | Text Only | Print | Product List | Glossary On
Versions: 1 2 3 4 5 6 7 8 9 10 11 12 13 14 15 16 17
000
FTUS43 KTOP 220500
TAFMHK
TAF
KMHK 220520Z 2206/2306 01012KT P6SM VCTS FEW060CB SCT150
     FM220700 18007KT P6SM VCTS SCT060CB BKN150
     FM221100 20006KT P6SM BKN150
     FM221400 19010KT P6SM SCT150=

USA.gov is the U.S. government's official web portal to all federal, state and local government web resources and services.